Maastricht Aachen Airport (VATSIM)

Aankomst


Geen EHBK aankomsten gevonden.
Callsign Type Herkomst Gepland (LT) Actuele aankomsttijd (LT) Status


Vertrek


Geen EHBK vertrekken gevonden.
Callsign Type Bestemming Vertrektijd (LT) Status



Beschikbare gates & stands


Stand/gate Status Stand/gate Status
A1B2
A2B3
A3D3
A4D4
B1



METAR


Tijd 19:55Z

QNH 1008 hPa

FEW300

BKN1300

OVC3100

16 °C / 14 °C

190° / 7kts

Vis 9,700

METAR: EHBK 291955Z AUTO 19007KT 170V230 9999 -RA FEW003 BKN013 OVC031 16/14 Q1008 NOSIG


Online controllers


  • Geen EHBK controllers online.

ATIS


Actieve banen



Neem deel aan de community!

Dutch Sim Pilot heeft een Discord! Druk op onderstaande knop om toegang te krijgen.

Join Discord